TimeCDT,TemperatureF,Dew PointF,Humidity,Sea Level PressureIn,VisibilityMPH,Wind Direction,Wind SpeedMPH,Gust SpeedMPH,PrecipitationIn,Events,Conditions,WindDirDegrees,DateUTC
12:56 AM,66.9,59.9,78,30.03,10.0,Calm,Calm,-,N/A,,Clear,0,2013-07-13 05:56:00
1:56 AM,63.9,59.0,84,30.03,10.0,Calm,Calm,-,N/A,,Partly Cloudy,0,2013-07-13 06:56:00
2:56 AM,64.9,59.9,84,30.03,10.0,Calm,Calm,-,N/A,,Mostly Cloudy,0,2013-07-13 07:56:00
3:56 AM,63.9,59.9,87,30.02,10.0,Calm,Calm,-,N/A,,Clear,0,2013-07-13 08:56:00
4:56 AM,63.0,59.0,87,30.02,10.0,Calm,Calm,-,N/A,,Clear,0,2013-07-13 09:56:00
5:56 AM,61.9,59.0,90,30.04,10.0,Calm,Calm,-,N/A,,Clear,0,2013-07-13 10:56:00
6:56 AM,64.9,61.0,87,30.05,10.0,Calm,Calm,-,N/A,,Clear,0,2013-07-13 11:56:00
7:56 AM,70.0,61.0,73,30.06,10.0,ENE,6.9,-,N/A,,Clear,60,2013-07-13 12:56:00
8:56 AM,72.0,61.9,70,30.06,10.0,Calm,Calm,-,N/A,,Clear,0,2013-07-13 13:56:00
9:56 AM,75.9,63.9,66,30.06,10.0,ENE,6.9,-,N/A,,Clear,70,2013-07-13 14:56:00
10:56 AM,79.0,64.9,62,30.07,10.0,Calm,Calm,-,N/A,,Clear,0,2013-07-13 15:56:00
11:56 AM,81.9,63.9,54,30.06,10.0,Calm,Calm,-,N/A,,Partly Cloudy,0,2013-07-13 16:56:00
12:56 PM,84.9,63.9,49,30.06,10.0,ENE,6.9,-,N/A,,Scattered Clouds,70,2013-07-13 17:56:00
1:56 PM,81.9,63.0,53,30.04,10.0,North,3.5,-,N/A,,Mostly Cloudy,10,2013-07-13 18:56:00
2:56 PM,82.9,65.8,56,30.03,10.0,North,6.9,-,N/A,,Scattered Clouds,360,2013-07-13 19:56:00
3:56 PM,86.0,64.9,49,30.01,10.0,NE,6.9,-,N/A,,Clear,40,2013-07-13 20:56:00
4:56 PM,86.0,63.0,46,30.01,10.0,Calm,Calm,-,N/A,,Partly Cloudy,0,2013-07-13 21:56:00
5:56 PM,86.0,63.9,47,30.01,10.0,Calm,Calm,-,N/A,,Clear,0,2013-07-13 22:56:00
6:56 PM,84.9,64.9,51,30.02,10.0,NNE,9.2,-,N/A,,Partly Cloudy,30,2013-07-13 23:56:00
7:56 PM,81.0,68.0,65,30.04,10.0,NE,9.2,-,N/A,,Scattered Clouds,40,2013-07-14 00:56:00
8:56 PM,75.9,66.9,74,30.06,10.0,SSE,4.6,-,N/A,,Clear,150,2013-07-14 01:56:00
9:56 PM,73.9,68.0,82,30.08,10.0,East,5.8,-,N/A,,Partly Cloudy,80,2013-07-14 02:56:00
10:56 PM,72.9,66.9,82,30.09,10.0,Calm,Calm,-,N/A,,Partly Cloudy,0,2013-07-14 03:56:00
11:56 PM,72.0,66.9,84,30.09,10.0,Calm,Calm,-,N/A,,Clear,0,2013-07-14 04:56:00